sensor_id;sensor_type;location;lat;lon;timestamp;P1;durP1;ratioP1;P2;durP2;ratioP2
60257;SDS011;46115;44.484;11.314;2022-09-27T00:03:42;7.57;;;1.90;;
60257;SDS011;46115;44.484;11.314;2022-09-27T00:07:45;7.93;;;2.17;;
60257;SDS011;46115;44.484;11.314;2022-09-27T00:11:48;6.72;;;2.05;;
60257;SDS011;46115;44.484;11.314;2022-09-27T00:15:55;7.95;;;2.05;;
60257;SDS011;46115;44.484;11.314;2022-09-27T00:19:59;6.95;;;1.90;;
60257;SDS011;46115;44.484;11.314;2022-09-27T00:24:01;8.30;;;1.77;;
60257;SDS011;46115;44.484;11.314;2022-09-27T00:28:04;10.77;;;2.97;;
60257;SDS011;46115;44.484;11.314;2022-09-27T00:32:08;7.00;;;1.98;;
60257;SDS011;46115;44.484;11.314;2022-09-27T00:36:11;6.25;;;2.05;;
60257;SDS011;46115;44.484;11.314;2022-09-27T00:40:14;5.95;;;2.13;;
60257;SDS011;46115;44.484;11.314;2022-09-27T00:49:04;5.32;;;1.88;;
60257;SDS011;46115;44.484;11.314;2022-09-27T00:53:13;7.32;;;2.05;;
60257;SDS011;46115;44.484;11.314;2022-09-27T00:57:19;4.93;;;1.70;;
60257;SDS011;46115;44.484;11.314;2022-09-27T01:01:23;8.55;;;1.88;;
60257;SDS011;46115;44.484;11.314;2022-09-27T01:05:27;5.85;;;1.60;;
60257;SDS011;46115;44.484;11.314;2022-09-27T01:09:30;5.60;;;1.60;;
60257;SDS011;46115;44.484;11.314;2022-09-27T01:13:34;5.20;;;1.92;;
60257;SDS011;46115;44.484;11.314;2022-09-27T01:17:46;5.65;;;1.70;;
60257;SDS011;46115;44.484;11.314;2022-09-27T01:22:03;5.07;;;1.60;;
60257;SDS011;46115;44.484;11.314;2022-09-27T01:26:15;6.82;;;1.40;;
60257;SDS011;46115;44.484;11.314;2022-09-27T01:30:32;3.78;;;1.40;;
60257;SDS011;46115;44.484;11.314;2022-09-27T01:34:46;4.90;;;1.63;;
60257;SDS011;46115;44.484;11.314;2022-09-27T01:39:02;6.60;;;1.77;;
60257;SDS011;46115;44.484;11.314;2022-09-27T01:43:40;5.63;;;1.80;;
60257;SDS011;46115;44.484;11.314;2022-09-27T01:47:51;8.95;;;1.70;;
60257;SDS011;46115;44.484;11.314;2022-09-27T01:52:22;9.93;;;2.03;;
60257;SDS011;46115;44.484;11.314;2022-09-27T01:56:36;3.70;;;1.40;;
60257;SDS011;46115;44.484;11.314;2022-09-27T02:00:48;8.45;;;1.70;;
60257;SDS011;46115;44.484;11.314;2022-09-27T02:04:56;5.00;;;1.60;;
60257;SDS011;46115;44.484;11.314;2022-09-27T02:09:05;4.38;;;1.58;;
60257;SDS011;46115;44.484;11.314;2022-09-27T02:13:26;5.38;;;1.85;;
60257;SDS011;46115;44.484;11.314;2022-09-27T02:17:57;4.13;;;1.90;;
60257;SDS011;46115;44.484;11.314;2022-09-27T02:22:07;7.32;;;1.90;;
60257;SDS011;46115;44.484;11.314;2022-09-27T02:26:17;7.30;;;1.70;;
60257;SDS011;46115;44.484;11.314;2022-09-27T02:30:23;6.38;;;1.50;;
60257;SDS011;46115;44.484;11.314;2022-09-27T02:34:34;6.82;;;1.52;;
60257;SDS011;46115;44.484;11.314;2022-09-27T02:38:40;6.63;;;1.90;;
60257;SDS011;46115;44.484;11.314;2022-09-27T02:42:46;5.60;;;2.05;;
60257;SDS011;46115;44.484;11.314;2022-09-27T02:51:39;8.20;;;2.00;;
60257;SDS011;46115;44.484;11.314;2022-09-27T02:55:55;7.80;;;1.85;;
60257;SDS011;46115;44.484;11.314;2022-09-27T03:00:35;5.15;;;1.80;;
60257;SDS011;46115;44.484;11.314;2022-09-27T03:05:14;3.67;;;1.50;;
60257;SDS011;46115;44.484;11.314;2022-09-27T03:09:20;5.97;;;2.22;;
60257;SDS011;46115;44.484;11.314;2022-09-27T03:13:26;6.32;;;1.75;;
60257;SDS011;46115;44.484;11.314;2022-09-27T03:17:31;7.15;;;1.60;;
60257;SDS011;46115;44.484;11.314;2022-09-27T03:21:51;5.90;;;1.70;;
60257;SDS011;46115;44.484;11.314;2022-09-27T03:25:54;5.32;;;1.63;;
60257;SDS011;46115;44.484;11.314;2022-09-27T03:29:59;5.93;;;2.00;;
60257;SDS011;46115;44.484;11.314;2022-09-27T03:34:01;6.57;;;2.03;;
60257;SDS011;46115;44.484;11.314;2022-09-27T03:38:04;5.93;;;1.80;;
60257;SDS011;46115;44.484;11.314;2022-09-27T03:42:07;6.50;;;1.40;;
60257;SDS011;46115;44.484;11.314;2022-09-27T03:46:14;7.53;;;1.80;;
60257;SDS011;46115;44.484;11.314;2022-09-27T03:50:17;7.95;;;1.80;;
60257;SDS011;46115;44.484;11.314;2022-09-27T03:54:19;4.68;;;1.45;;
60257;SDS011;46115;44.484;11.314;2022-09-27T03:58:22;5.05;;;1.50;;
60257;SDS011;46115;44.484;11.314;2022-09-27T04:02:26;8.63;;;1.85;;
60257;SDS011;46115;44.484;11.314;2022-09-27T04:06:48;4.93;;;1.60;;
60257;SDS011;46115;44.484;11.314;2022-09-27T04:10:50;3.97;;;1.40;;
60257;SDS011;46115;44.484;11.314;2022-09-27T04:14:53;7.05;;;1.52;;
60257;SDS011;46115;44.484;11.314;2022-09-27T04:19:27;3.70;;;1.50;;
60257;SDS011;46115;44.484;11.314;2022-09-27T04:23:43;7.80;;;2.28;;
60257;SDS011;46115;44.484;11.314;2022-09-27T04:27:48;8.80;;;1.70;;
60257;SDS011;46115;44.484;11.314;2022-09-27T04:31:51;6.25;;;1.58;;
60257;SDS011;46115;44.484;11.314;2022-09-27T04:35:59;7.32;;;1.50;;
60257;SDS011;46115;44.484;11.314;2022-09-27T04:40:33;6.85;;;1.80;;
60257;SDS011;46115;44.484;11.314;2022-09-27T04:44:36;4.45;;;1.50;;
60257;SDS011;46115;44.484;11.314;2022-09-27T04:48:39;3.33;;;1.60;;
60257;SDS011;46115;44.484;11.314;2022-09-27T04:52:43;6.90;;;1.50;;
60257;SDS011;46115;44.484;11.314;2022-09-27T04:56:45;4.97;;;1.70;;
60257;SDS011;46115;44.484;11.314;2022-09-27T05:00:48;3.80;;;1.63;;
60257;SDS011;46115;44.484;11.314;2022-09-27T05:05:30;5.95;;;1.65;;
60257;SDS011;46115;44.484;11.314;2022-09-27T05:09:34;5.20;;;1.52;;
60257;SDS011;46115;44.484;11.314;2022-09-27T05:13:37;8.93;;;1.60;;
60257;SDS011;46115;44.484;11.314;2022-09-27T05:17:39;10.38;;;1.83;;
60257;SDS011;46115;44.484;11.314;2022-09-27T05:22:00;9.00;;;1.73;;
60257;SDS011;46115;44.484;11.314;2022-09-27T05:26:05;6.22;;;1.70;;
60257;SDS011;46115;44.484;11.314;2022-09-27T05:30:08;7.90;;;1.70;;
60257;SDS011;46115;44.484;11.314;2022-09-27T05:34:19;8.68;;;2.00;;
60257;SDS011;46115;44.484;11.314;2022-09-27T05:38:31;8.57;;;2.00;;
60257;SDS011;46115;44.484;11.314;2022-09-27T05:42:38;10.35;;;2.60;;
60257;SDS011;46115;44.484;11.314;2022-09-27T05:46:41;11.15;;;1.88;;
60257;SDS011;46115;44.484;11.314;2022-09-27T05:50:46;8.02;;;1.83;;
60257;SDS011;46115;44.484;11.314;2022-09-27T05:54:48;11.23;;;1.95;;
60257;SDS011;46115;44.484;11.314;2022-09-27T05:58:53;8.00;;;1.83;;
60257;SDS011;46115;44.484;11.314;2022-09-27T06:02:57;10.63;;;2.05;;
60257;SDS011;46115;44.484;11.314;2022-09-27T06:07:33;8.68;;;1.90;;
60257;SDS011;46115;44.484;11.314;2022-09-27T06:11:39;7.32;;;1.70;;
60257;SDS011;46115;44.484;11.314;2022-09-27T06:15:44;8.32;;;1.98;;
60257;SDS011;46115;44.484;11.314;2022-09-27T06:19:47;9.07;;;1.95;;
60257;SDS011;46115;44.484;11.314;2022-09-27T06:23:50;8.57;;;1.60;;
60257;SDS011;46115;44.484;11.314;2022-09-27T06:27:58;7.22;;;1.95;;
60257;SDS011;46115;44.484;11.314;2022-09-27T06:32:04;7.95;;;2.20;;
60257;SDS011;46115;44.484;11.314;2022-09-27T06:36:22;8.90;;;2.05;;
60257;SDS011;46115;44.484;11.314;2022-09-27T06:40:25;10.40;;;2.35;;
60257;SDS011;46115;44.484;11.314;2022-09-27T06:44:46;9.55;;;1.73;;
60257;SDS011;46115;44.484;11.314;2022-09-27T06:49:10;9.13;;;2.00;;
60257;SDS011;46115;44.484;11.314;2022-09-27T06:53:15;10.57;;;2.35;;
60257;SDS011;46115;44.484;11.314;2022-09-27T06:57:17;7.10;;;2.00;;
60257;SDS011;46115;44.484;11.314;2022-09-27T07:01:50;10.85;;;2.10;;
60257;SDS011;46115;44.484;11.314;2022-09-27T07:06:15;6.90;;;2.08;;
60257;SDS011;46115;44.484;11.314;2022-09-27T07:10:43;8.75;;;2.15;;
60257;SDS011;46115;44.484;11.314;2022-09-27T07:14:45;9.05;;;2.00;;
60257;SDS011;46115;44.484;11.314;2022-09-27T07:18:51;8.57;;;1.95;;
60257;SDS011;46115;44.484;11.314;2022-09-27T07:22:55;6.03;;;1.83;;
60257;SDS011;46115;44.484;11.314;2022-09-27T07:26:58;7.32;;;2.00;;
60257;SDS011;46115;44.484;11.314;2022-09-27T07:31:02;7.28;;;2.17;;
60257;SDS011;46115;44.484;11.314;2022-09-27T07:35:06;5.93;;;2.05;;
60257;SDS011;46115;44.484;11.314;2022-09-27T07:39:11;8.68;;;2.28;;
60257;SDS011;46115;44.484;11.314;2022-09-27T07:43:13;6.68;;;2.03;;
60257;SDS011;46115;44.484;11.314;2022-09-27T07:47:17;8.55;;;2.63;;
60257;SDS011;46115;44.484;11.314;2022-09-27T07:51:40;6.13;;;2.15;;
60257;SDS011;46115;44.484;11.314;2022-09-27T07:56:02;9.50;;;2.35;;
60257;SDS011;46115;44.484;11.314;2022-09-27T08:00:08;6.63;;;2.20;;
60257;SDS011;46115;44.484;11.314;2022-09-27T08:04:14;7.40;;;2.40;;
60257;SDS011;46115;44.484;11.314;2022-09-27T08:08:16;8.02;;;2.17;;
60257;SDS011;46115;44.484;11.314;2022-09-27T08:12:23;6.65;;;2.10;;
60257;SDS011;46115;44.484;11.314;2022-09-27T08:16:25;9.35;;;1.98;;
60257;SDS011;46115;44.484;11.314;2022-09-27T08:20:46;6.05;;;2.38;;
60257;SDS011;46115;44.484;11.314;2022-09-27T08:25:00;5.93;;;2.05;;
60257;SDS011;46115;44.484;11.314;2022-09-27T08:29:23;6.13;;;2.00;;
60257;SDS011;46115;44.484;11.314;2022-09-27T08:33:29;6.65;;;1.90;;
60257;SDS011;46115;44.484;11.314;2022-09-27T08:37:31;6.70;;;1.90;;
60257;SDS011;46115;44.484;11.314;2022-09-27T08:41:36;5.22;;;1.90;;
60257;SDS011;46115;44.484;11.314;2022-09-27T08:45:45;5.80;;;2.10;;
60257;SDS011;46115;44.484;11.314;2022-09-27T08:49:58;5.82;;;1.88;;
60257;SDS011;46115;44.484;11.314;2022-09-27T08:54:05;4.22;;;2.00;;
60257;SDS011;46115;44.484;11.314;2022-09-27T08:58:13;5.55;;;2.00;;
60257;SDS011;46115;44.484;11.314;2022-09-27T09:02:23;6.43;;;2.10;;
60257;SDS011;46115;44.484;11.314;2022-09-27T09:06:27;8.95;;;2.22;;
60257;SDS011;46115;44.484;11.314;2022-09-27T09:10:42;7.47;;;2.20;;
60257;SDS011;46115;44.484;11.314;2022-09-27T09:15:18;5.45;;;1.90;;
60257;SDS011;46115;44.484;11.314;2022-09-27T09:19:59;7.35;;;2.10;;
60257;SDS011;46115;44.484;11.314;2022-09-27T09:24:26;5.80;;;2.47;;
60257;SDS011;46115;44.484;11.314;2022-09-27T09:28:49;5.13;;;1.80;;
60257;SDS011;46115;44.484;11.314;2022-09-27T09:37:33;5.95;;;2.10;;
60257;SDS011;46115;44.484;11.314;2022-09-27T09:41:38;5.90;;;2.40;;
60257;SDS011;46115;44.484;11.314;2022-09-27T09:45:44;6.20;;;2.08;;
60257;SDS011;46115;44.484;11.314;2022-09-27T09:49:51;8.30;;;1.90;;
60257;SDS011;46115;44.484;11.314;2022-09-27T09:54:01;5.10;;;1.90;;
60257;SDS011;46115;44.484;11.314;2022-09-27T09:58:14;7.53;;;1.60;;
60257;SDS011;46115;44.484;11.314;2022-09-27T10:02:28;5.95;;;1.58;;
60257;SDS011;46115;44.484;11.314;2022-09-27T10:06:41;5.00;;;1.67;;
60257;SDS011;46115;44.484;11.314;2022-09-27T10:10:46;4.53;;;1.60;;
60257;SDS011;46115;44.484;11.314;2022-09-27T10:15:15;9.13;;;1.90;;
60257;SDS011;46115;44.484;11.314;2022-09-27T10:19:19;7.47;;;1.92;;
60257;SDS011;46115;44.484;11.314;2022-09-27T10:23:30;7.18;;;1.83;;
60257;SDS011;46115;44.484;11.314;2022-09-27T10:27:44;6.57;;;1.90;;
60257;SDS011;46115;44.484;11.314;2022-09-27T10:31:54;8.65;;;2.13;;
60257;SDS011;46115;44.484;11.314;2022-09-27T10:36:20;7.53;;;1.90;;
60257;SDS011;46115;44.484;11.314;2022-09-27T10:40:26;5.47;;;1.83;;
60257;SDS011;46115;44.484;11.314;2022-09-27T10:44:33;8.05;;;1.73;;
60257;SDS011;46115;44.484;11.314;2022-09-27T10:49:07;6.93;;;1.95;;
60257;SDS011;46115;44.484;11.314;2022-09-27T10:53:14;9.68;;;2.00;;
60257;SDS011;46115;44.484;11.314;2022-09-27T10:57:23;6.00;;;1.67;;
60257;SDS011;46115;44.484;11.314;2022-09-27T11:01:38;8.18;;;2.22;;
60257;SDS011;46115;44.484;11.314;2022-09-27T11:05:55;7.25;;;2.03;;
60257;SDS011;46115;44.484;11.314;2022-09-27T11:09:59;7.22;;;1.95;;
60257;SDS011;46115;44.484;11.314;2022-09-27T11:14:05;9.65;;;1.90;;
60257;SDS011;46115;44.484;11.314;2022-09-27T11:18:22;5.72;;;2.00;;
60257;SDS011;46115;44.484;11.314;2022-09-27T11:22:35;9.00;;;1.92;;
60257;SDS011;46115;44.484;11.314;2022-09-27T11:26:58;5.80;;;1.70;;
60257;SDS011;46115;44.484;11.314;2022-09-27T11:31:10;5.47;;;1.70;;
60257;SDS011;46115;44.484;11.314;2022-09-27T11:35:32;7.15;;;1.90;;
60257;SDS011;46115;44.484;11.314;2022-09-27T11:39:51;5.90;;;1.90;;
60257;SDS011;46115;44.484;11.314;2022-09-27T11:48:47;3.60;;;1.58;;
60257;SDS011;46115;44.484;11.314;2022-09-27T11:53:08;4.70;;;1.92;;
60257;SDS011;46115;44.484;11.314;2022-09-27T11:57:24;7.30;;;1.77;;
60257;SDS011;46115;44.484;11.314;2022-09-27T12:01:35;4.15;;;1.60;;
60257;SDS011;46115;44.484;11.314;2022-09-27T12:05:51;11.40;;;2.40;;
60257;SDS011;46115;44.484;11.314;2022-09-27T12:10:06;8.05;;;1.83;;
60257;SDS011;46115;44.484;11.314;2022-09-27T12:14:15;4.30;;;1.40;;
60257;SDS011;46115;44.484;11.314;2022-09-27T12:18:23;4.28;;;1.25;;
60257;SDS011;46115;44.484;11.314;2022-09-27T12:22:31;5.57;;;1.52;;
60257;SDS011;46115;44.484;11.314;2022-09-27T12:26:38;5.82;;;1.95;;
60257;SDS011;46115;44.484;11.314;2022-09-27T12:30:45;6.72;;;1.83;;
60257;SDS011;46115;44.484;11.314;2022-09-27T12:34:55;5.97;;;1.30;;
60257;SDS011;46115;44.484;11.314;2022-09-27T12:39:05;5.07;;;1.13;;
60257;SDS011;46115;44.484;11.314;2022-09-27T12:43:19;5.10;;;1.20;;
60257;SDS011;46115;44.484;11.314;2022-09-27T12:47:53;6.97;;;1.42;;
60257;SDS011;46115;44.484;11.314;2022-09-27T12:52:08;6.85;;;1.25;;
60257;SDS011;46115;44.484;11.314;2022-09-27T12:56:17;5.75;;;1.40;;
60257;SDS011;46115;44.484;11.314;2022-09-27T13:00:32;3.63;;;1.10;;
60257;SDS011;46115;44.484;11.314;2022-09-27T13:04:46;6.05;;;1.20;;
60257;SDS011;46115;44.484;11.314;2022-09-27T13:13:33;2.75;;;0.80;;
60257;SDS011;46115;44.484;11.314;2022-09-27T13:17:50;6.05;;;1.08;;
60257;SDS011;46115;44.484;11.314;2022-09-27T13:26:52;6.50;;;1.02;;
60257;SDS011;46115;44.484;11.314;2022-09-27T13:30:55;3.75;;;1.02;;
60257;SDS011;46115;44.484;11.314;2022-09-27T13:35:11;4.30;;;1.17;;
60257;SDS011;46115;44.484;11.314;2022-09-27T13:39:21;6.07;;;0.93;;
60257;SDS011;46115;44.484;11.314;2022-09-27T13:43:52;4.35;;;0.88;;
60257;SDS011;46115;44.484;11.314;2022-09-27T13:48:17;4.22;;;0.80;;
60257;SDS011;46115;44.484;11.314;2022-09-27T13:52:28;3.70;;;0.88;;
60257;SDS011;46115;44.484;11.314;2022-09-27T13:56:56;3.10;;;0.80;;
60257;SDS011;46115;44.484;11.314;2022-09-27T14:00:59;3.85;;;0.90;;
60257;SDS011;46115;44.484;11.314;2022-09-27T14:05:06;5.32;;;1.00;;
60257;SDS011;46115;44.484;11.314;2022-09-27T14:09:19;4.45;;;1.00;;
60257;SDS011;46115;44.484;11.314;2022-09-27T14:13:33;2.78;;;1.00;;
60257;SDS011;46115;44.484;11.314;2022-09-27T14:17:41;5.55;;;1.25;;
60257;SDS011;46115;44.484;11.314;2022-09-27T14:21:47;4.03;;;1.10;;
60257;SDS011;46115;44.484;11.314;2022-09-27T14:26:18;3.13;;;0.90;;
60257;SDS011;46115;44.484;11.314;2022-09-27T14:30:25;4.85;;;0.90;;
60257;SDS011;46115;44.484;11.314;2022-09-27T14:34:38;6.38;;;1.30;;
60257;SDS011;46115;44.484;11.314;2022-09-27T14:38:43;5.80;;;1.20;;
60257;SDS011;46115;44.484;11.314;2022-09-27T14:42:58;3.85;;;1.00;;
60257;SDS011;46115;44.484;11.314;2022-09-27T14:47:07;5.90;;;0.98;;
60257;SDS011;46115;44.484;11.314;2022-09-27T14:51:16;5.90;;;1.02;;
60257;SDS011;46115;44.484;11.314;2022-09-27T14:55:22;5.85;;;1.10;;
60257;SDS011;46115;44.484;11.314;2022-09-27T14:59:32;4.90;;;1.00;;
60257;SDS011;46115;44.484;11.314;2022-09-27T15:03:37;5.70;;;0.88;;
60257;SDS011;46115;44.484;11.314;2022-09-27T15:07:39;5.07;;;0.90;;
60257;SDS011;46115;44.484;11.314;2022-09-27T15:11:43;4.50;;;1.00;;
60257;SDS011;46115;44.484;11.314;2022-09-27T15:15:50;3.90;;;1.00;;
60257;SDS011;46115;44.484;11.314;2022-09-27T15:19:57;6.47;;;1.00;;
60257;SDS011;46115;44.484;11.314;2022-09-27T15:24:01;4.85;;;1.00;;
60257;SDS011;46115;44.484;11.314;2022-09-27T15:28:05;4.55;;;1.15;;
60257;SDS011;46115;44.484;11.314;2022-09-27T15:32:19;12.20;;;1.20;;
60257;SDS011;46115;44.484;11.314;2022-09-27T15:41:02;3.47;;;0.98;;
60257;SDS011;46115;44.484;11.314;2022-09-27T15:45:25;5.80;;;1.30;;
60257;SDS011;46115;44.484;11.314;2022-09-27T15:49:30;6.95;;;1.10;;
60257;SDS011;46115;44.484;11.314;2022-09-27T15:53:43;5.63;;;1.10;;
60257;SDS011;46115;44.484;11.314;2022-09-27T16:01:50;5.32;;;1.00;;
60257;SDS011;46115;44.484;11.314;2022-09-27T16:05:57;5.13;;;1.10;;
60257;SDS011;46115;44.484;11.314;2022-09-27T16:10:04;5.65;;;1.15;;
60257;SDS011;46115;44.484;11.314;2022-09-27T16:14:13;4.03;;;1.05;;
60257;SDS011;46115;44.484;11.314;2022-09-27T16:18:18;4.90;;;1.10;;
60257;SDS011;46115;44.484;11.314;2022-09-27T16:22:22;3.55;;;0.90;;
60257;SDS011;46115;44.484;11.314;2022-09-27T16:26:24;6.28;;;1.05;;
60257;SDS011;46115;44.484;11.314;2022-09-27T16:30:26;7.20;;;1.17;;
60257;SDS011;46115;44.484;11.314;2022-09-27T16:34:30;5.13;;;1.10;;
60257;SDS011;46115;44.484;11.314;2022-09-27T16:38:34;6.13;;;1.10;;
60257;SDS011;46115;44.484;11.314;2022-09-27T16:42:36;7.15;;;1.20;;
60257;SDS011;46115;44.484;11.314;2022-09-27T16:46:39;6.28;;;0.93;;
60257;SDS011;46115;44.484;11.314;2022-09-27T16:50:42;7.80;;;1.00;;
60257;SDS011;46115;44.484;11.314;2022-09-27T16:55:04;6.57;;;1.38;;
60257;SDS011;46115;44.484;11.314;2022-09-27T16:59:07;4.72;;;0.95;;
60257;SDS011;46115;44.484;11.314;2022-09-27T17:03:09;4.32;;;1.00;;
60257;SDS011;46115;44.484;11.314;2022-09-27T17:07:11;3.53;;;0.90;;
60257;SDS011;46115;44.484;11.314;2022-09-27T17:11:16;4.30;;;1.00;;
60257;SDS011;46115;44.484;11.314;2022-09-27T17:15:19;4.75;;;0.95;;
60257;SDS011;46115;44.484;11.314;2022-09-27T17:19:22;5.70;;;1.00;;
60257;SDS011;46115;44.484;11.314;2022-09-27T17:23:24;4.90;;;1.00;;
60257;SDS011;46115;44.484;11.314;2022-09-27T17:27:28;3.05;;;0.95;;
60257;SDS011;46115;44.484;11.314;2022-09-27T17:31:30;4.18;;;1.10;;
60257;SDS011;46115;44.484;11.314;2022-09-27T17:35:34;3.63;;;1.05;;
60257;SDS011;46115;44.484;11.314;2022-09-27T22:06:09;9.15;;;2.03;;
60257;SDS011;46115;44.484;11.314;2022-09-27T22:10:13;9.13;;;1.80;;
60257;SDS011;46115;44.484;11.314;2022-09-27T22:14:16;7.40;;;1.42;;
60257;SDS011;46115;44.484;11.314;2022-09-27T22:18:19;8.98;;;1.80;;
60257;SDS011;46115;44.484;11.314;2022-09-27T22:22:23;10.57;;;2.03;;
60257;SDS011;46115;44.484;11.314;2022-09-27T22:26:26;9.50;;;1.83;;
60257;SDS011;46115;44.484;11.314;2022-09-27T22:30:30;10.05;;;1.73;;
60257;SDS011;46115;44.484;11.314;2022-09-27T22:34:32;9.57;;;1.80;;
60257;SDS011;46115;44.484;11.314;2022-09-27T22:38:36;7.47;;;1.77;;
60257;SDS011;46115;44.484;11.314;2022-09-27T22:42:38;8.82;;;2.13;;
60257;SDS011;46115;44.484;11.314;2022-09-27T22:46:41;8.05;;;1.70;;
60257;SDS011;46115;44.484;11.314;2022-09-27T22:50:43;10.00;;;1.65;;
60257;SDS011;46115;44.484;11.314;2022-09-27T22:54:47;10.13;;;1.90;;
60257;SDS011;46115;44.484;11.314;2022-09-27T22:58:50;7.30;;;1.83;;
60257;SDS011;46115;44.484;11.314;2022-09-27T23:02:52;14.40;;;2.53;;
60257;SDS011;46115;44.484;11.314;2022-09-27T23:06:55;9.68;;;1.73;;
60257;SDS011;46115;44.484;11.314;2022-09-27T23:15:06;8.18;;;1.55;;
60257;SDS011;46115;44.484;11.314;2022-09-27T23:19:09;10.07;;;1.90;;
60257;SDS011;46115;44.484;11.314;2022-09-27T23:23:11;9.30;;;1.98;;
60257;SDS011;46115;44.484;11.314;2022-09-27T23:27:15;10.20;;;1.60;;
60257;SDS011;46115;44.484;11.314;2022-09-27T23:31:35;8.25;;;1.75;;
60257;SDS011;46115;44.484;11.314;2022-09-27T23:35:37;8.02;;;2.10;;
60257;SDS011;46115;44.484;11.314;2022-09-27T23:43:43;8.95;;;1.70;;
60257;SDS011;46115;44.484;11.314;2022-09-27T23:47:47;11.65;;;1.90;;
60257;SDS011;46115;44.484;11.314;2022-09-27T23:55:58;9.05;;;1.60;;
